Ontario International Airport
KONT : rendu visible

Aérodrome :











RETROUVEZ-NOUS SUR...

 
LOGIN :

S'inscrire | Disclaimer

   EN    FR    IT 

 









Légende :    VFR   VFR Marginal   IFR   IFR Intensif   IFR Très Intensif
Visi : 
Plafond : 
>= 8 km
>= 3000ft
5 à 8 km
1000 à 3000 ft
1500m à 5 km
500 à 1000 ft
800 à 1500m
200 à 500 ft
< 800m
< 200 ft
Symboles :   Orages  Brouillard  Fortes neiges  Fortes précipitations  Vent > 20 kt






- Altitude de l'aérodrome : 944 ft
- Code IATA : ONT


KONT - Ontario International

DERNIER METAR :
  • 080953Z 26005KT 10SM FEW011 BKN017 OVC026 10/08 A2998 RMK AO2 RAE05 SLP152 P0000 T01000083 $

METARs EXPIRÉS :
  • 080853Z 00000KT 10SM -RA FEW007 BKN017 OVC026 10/09 A3000 RMK AO2 SLP159 P0001 60002 T01000089 58004 $
  • 080753Z 24006KT 10SM -RA FEW005 BKN017 OVC026 10/09 A3001 RMK AO2 RAB0654 SLP161 P0001 T01000094 401560100 $

TAF KONT
Valide du 08 à 09h jusqu'au 09 à 12h UTC


080859Z 0809/0912 VRB05KT P6SM -RA FEW007 BKN017 OVC026
FM081100 VRB05KT P6SM -SHRA SCT018 BKN030
FM082000 24010KT P6SM VCSH SCT025 BKN050
FM090400 24005KT P6SM VCSH SCT025 BKN050



MET'MAP, la Météo Aéronautique d'un coup d'oeil ! - Copyright ORBIFLY Décembre 2007 - Disclaimer

ORBIFLY MET'MAP TEAM :

Programmation & Développement : Alexandra Zaïnal
Sur une idée originale de : Baudouin d'Aumeries
Assistance à la programmation : Marc-Olivier Méhu
Soutien technique & logistique : Manuel Goepfert

Contact : metmap@orbifly.com




SOURCES & CREDITS :

   NOAA       Earth
Advisory